首页
METAR-TAF:

METAR-TAF

机场 :

Sioux Lookout, 安大略省, 加拿大

纬度: 50-07N, 经度: 091-54W, 海拔: 389米

当前天气观测

该预报发布于38分钟前的21:00 UTC
风速5节,风向,在北转东北南转西南之间变化
温度 22°C
湿度 60%
气压 1011 hPa
能見度: 24.1公里
少量云层高于4000英尺
散云层高于9000英尺
多云层高于21000英尺

METAR: CYXL 232100Z 10005KT 030V200 15SM FEW040 SCT090 BKN210 22/14 A2984 RMK CU2AC1CI2 SLP110 DENSITY ALT 2500FT

时间: 16:38 (21:38 UTC)

预报

该预报发布于1小时和58分钟前的19:40 UTC
预报有效从23日的 20点(UTC)到 24日的 08点(UTC)
风速5节,风向
能見度: 10公里
少量云层高于3000英尺
多云层高于8000英尺
短暂存在
从 23日的 20点(UTC)到 23日的 23点(UTC)
能見度: 10公里
小阵雨
从 24日的 0300点(UTC)
风速3节,风向多变
能見度: 10公里
少量云层高于3000英尺

TAF: CYXL 231940Z 2320/2408 08005KT P6SM FEW030 BKN080 TEMPO 2320/2323 P6SM -SHRA FM240300 VRB03KT P6SM FEW030 RMK NXT FCST BY 240200Z

超过4000个机场的气象观测和天气预报(METAR&TAF报告)。

可查询的气象台以黄色和红色小点在地图上表示。

将鼠标移到小点上方,可查看气象台名称。

然后点击查看天气观测和预报。

如需切换地图:点击带黑十字的绿色按钮放大地图;点击带横线的绿色按钮缩小地图;或者点击绿色箭头查看邻近地区的地图。


METAR-TAF: